Time;durP1;ratioP1;P1;durP2;ratioP2;P2;SDS_P1;SDS_P2;PMS_P1;PMS_P2;Temp;Humidity;BMP_temperature;BMP_pressure;BME280_temperature;BME280_humidity;BME280_pressure;Samples;Min_cycle;Max_cycle;Signal;HPM_P1;HPM_P2
2021/01/18 00:14:10;;;;;;;;;;;;;;;;;;;;;
2021/01/18 00:17:41;;;;;;;;;;;;;;;;;;;;;
2021/01/18 00:20:54;;;;;;;68.13;22.90;;;;;;;;;;5985842;24;20022;-88
2021/01/18 01:25:53;;;;;;;26.52;11.60;;;;;;;;;;5977061;24;20033;-88
2021/01/18 01:55:37;;;;;;;32.88;13.80;;;;;;;;;;6122988;23;20026;-88
2021/01/18 02:05:32;;;;;;;;;;;;;;;;;;;;;
2021/01/18 02:08:28;;;;;;;34.20;12.30;;;;;;;;;;5948466;24;20025;-88
2021/01/18 02:11:14;;;;;;;35.05;12.10;;;;;;;;;;5939886;24;20021;-88
2021/01/18 02:17:29;;;;;;;;;;;;;;;;;;;;;
2021/01/18 02:20:20;;;;;;;27.33;11.95;;;;;;;;;;6014402;23;20319;-88
2021/01/18 02:23:26;;;;;;;23.10;10.95;;;;;;;;;;5992617;23;20027;-88
2021/01/18 02:25:57;;;;;;;34.80;12.93;;;;;;;;;;5989231;23;20071;-88
2021/01/18 02:28:43;;;;;;;25.75;9.73;;;;;;;;;;6046791;23;20026;-88
2021/01/18 02:31:31;;;;;;;25.15;10.05;;;;;;;;;;6068068;23;20050;-88
2021/01/18 02:34:05;;;;;;;31.73;9.98;;;;;;;;;;6155078;23;20017;-88
2021/01/18 02:36:56;;;;;;;25.10;9.55;;;;;;;;;;6130008;23;20030;-88
2021/01/18 02:39:42;;;;;;;29.65;11.13;;;;;;;;;;6155123;23;20040;-88
2021/01/18 02:42:18;;;;;;;32.55;9.38;;;;;;;;;;6135486;23;20017;-88
2021/01/18 02:44:55;;;;;;;35.22;10.00;;;;;;;;;;6181849;22;20031;-88
2021/01/18 02:47:29;;;;;;;34.80;11.05;;;;;;;;;;6273163;22;20046;-88
2021/01/18 02:49:56;;;;;;;28.63;10.80;;;;;;;;;;6257699;22;20098;-88
2021/01/18 02:52:29;;;;;;;26.88;10.32;;;;;;;;;;6280246;22;20572;-88
2021/01/18 02:54:55;;;;;;;35.00;10.68;;;;;;;;;;6279904;22;20043;-87
2021/01/18 02:57:22;;;;;;;32.20;10.30;;;;;;;;;;6272528;22;20042;-88
2021/01/18 02:59:59;;;;;;;27.98;9.50;;;;;;;;;;6298995;22;20035;-88
2021/01/18 03:02:26;;;;;;;28.35;9.50;;;;;;;;;;6254839;22;20294;-88
2021/01/18 03:05:02;;;;;;;30.70;9.57;;;;;;;;;;6254198;22;20027;-88
2021/01/18 03:07:31;;;;;;;24.40;9.45;;;;;;;;;;6254280;22;20034;-88
2021/01/18 03:10:05;;;;;;;32.55;10.02;;;;;;;;;;6280138;22;20288;-89
2021/01/18 03:12:38;;;;;;;25.25;8.55;;;;;;;;;;6251713;22;20024;-88
2021/01/18 03:15:10;;;;;;;33.58;9.15;;;;;;;;;;6281319;22;20020;-88
2021/01/18 03:17:40;;;;;;;32.67;11.45;;;;;;;;;;6256482;22;20039;-87
2021/01/18 03:20:07;;;;;;;31.25;9.73;;;;;;;;;;6280731;22;20023;-87
2021/01/18 03:22:33;;;;;;;24.33;9.55;;;;;;;;;;6253885;22;20034;-87
2021/01/18 03:25:03;;;;;;;23.25;9.90;;;;;;;;;;6253230;22;20023;-87
2021/01/18 03:27:32;;;;;;;31.67;10.57;;;;;;;;;;6253307;22;20254;-87
2021/01/18 03:30:03;;;;;;;34.53;9.93;;;;;;;;;;6280304;22;20058;-88
2021/01/18 03:32:29;;;;;;;30.27;9.23;;;;;;;;;;6252932;22;20290;-88
2021/01/18 03:35:08;;;;;;;26.50;8.60;;;;;;;;;;6257601;22;20031;-87
2021/01/18 03:37:37;;;;;;;27.23;9.48;;;;;;;;;;6282760;22;20137;-87
2021/01/18 03:40:03;;;;;;;28.70;10.18;;;;;;;;;;6282915;22;20424;-87
2021/01/18 03:42:29;;;;;;;27.48;9.77;;;;;;;;;;6282001;22;20451;-87
2021/01/18 03:45:00;;;;;;;31.17;10.27;;;;;;;;;;6281275;22;20043;-87
2021/01/18 03:47:33;;;;;;;30.10;9.90;;;;;;;;;;6255856;22;20226;-87
2021/01/18 03:50:14;;;;;;;31.33;10.43;;;;;;;;;;6255364;22;20059;-87
2021/01/18 03:52:44;;;;;;;31.13;10.55;;;;;;;;;;6254265;22;20216;-87
2021/01/18 03:55:13;;;;;;;22.08;9.32;;;;;;;;;;6280918;22;20055;-88
2021/01/18 03:57:51;;;;;;;25.58;9.00;;;;;;;;;;6259061;22;20023;-87
2021/01/18 04:04:33;;;;;;;;;;;;;;;;;;;;;
2021/01/18 04:11:14;;;;;;;;;;;;;;;;;;;;;
2021/01/18 04:14:50;;;;;;;41.15;10.18;;;;;;;;;;6158387;23;20025;-87
2021/01/18 04:35:39;;;;;;;19.23;8.25;;;;;;;;;;6086037;23;20041;-87
2021/01/18 04:38:44;;;;;;;25.20;8.35;;;;;;;;;;6047695;23;20294;-87
2021/01/18 04:41:41;;;;;;;29.27;9.07;;;;;;;;;;6067072;23;20166;-87
2021/01/18 04:44:22;;;;;;;32.85;7.93;;;;;;;;;;6104062;23;20040;-87
2021/01/18 04:46:53;;;;;;;28.05;8.13;;;;;;;;;;6126684;23;20053;-87
2021/01/18 04:49:24;;;;;;;25.52;8.20;;;;;;;;;;6127357;23;20089;-87
2021/01/18 04:51:54;;;;;;;24.48;8.10;;;;;;;;;;6101383;23;20033;-87
2021/01/18 04:54:24;;;;;;;34.92;8.77;;;;;;;;;;6100771;23;20030;-87
2021/01/18 04:57:11;;;;;;;28.58;8.13;;;;;;;;;;6125417;23;20029;-88
2021/01/18 04:59:43;;;;;;;19.53;7.73;;;;;;;;;;6099595;23;20401;-88
2021/01/18 05:02:12;;;;;;;32.58;7.80;;;;;;;;;;6123414;23;20026;-87
2021/01/18 05:04:44;;;;;;;30.48;8.65;;;;;;;;;;6123851;23;20280;-88
2021/01/18 05:07:32;;;;;;;26.98;8.45;;;;;;;;;;6102268;23;20108;-88
2021/01/18 05:10:08;;;;;;;28.65;8.88;;;;;;;;;;6126802;23;20060;-86
2021/01/18 05:12:39;;;;;;;31.05;8.32;;;;;;;;;;6126440;23;20026;-86
2021/01/18 05:15:12;;;;;;;28.98;7.78;;;;;;;;;;6169268;22;20024;-86
2021/01/18 05:17:48;;;;;;;26.20;7.45;;;;;;;;;;6251280;23;20038;-87
2021/01/18 05:20:21;;;;;;;27.70;7.72;;;;;;;;;;6225950;23;20028;-87
2021/01/18 05:22:55;;;;;;;19.35;8.20;;;;;;;;;;6251014;23;20107;-87
2021/01/18 05:25:21;;;;;;;24.50;8.10;;;;;;;;;;6223381;23;20313;-87
2021/01/18 05:28:16;;;;;;;41.30;8.73;;;;;;;;;;6249763;23;20091;-86
2021/01/18 05:30:42;;;;;;;27.88;7.50;;;;;;;;;;6248158;23;20024;-86
2021/01/18 05:33:10;;;;;;;46.45;9.18;;;;;;;;;;6222201;23;20414;-87
2021/01/18 05:35:38;;;;;;;21.08;6.50;;;;;;;;;;6227557;23;20046;-88
2021/01/18 05:38:11;;;;;;;25.20;7.10;;;;;;;;;;6229031;23;20028;-87
2021/01/18 05:40:48;;;;;;;19.90;6.65;;;;;;;;;;6221432;23;20028;-88
2021/01/18 05:43:16;;;;;;;21.70;6.45;;;;;;;;;;6272931;22;20024;-88
2021/01/18 05:45:46;;;;;;;158.85;17.08;;;;;;;;;;6250070;22;20042;-88
2021/01/18 05:48:23;;;;;;;48.33;8.02;;;;;;;;;;6281655;22;20034;-88
2021/01/18 05:50:54;;;;;;;16.65;6.15;;;;;;;;;;6251611;22;20409;-88
2021/01/18 05:53:27;;;;;;;22.50;6.70;;;;;;;;;;6251877;22;20024;-86
2021/01/18 05:56:19;;;;;;;21.60;8.13;;;;;;;;;;6277851;22;20028;-88
2021/01/18 05:58:46;;;;;;;41.75;8.55;;;;;;;;;;6252010;22;20028;-88
2021/01/18 06:01:12;;;;;;;19.75;8.10;;;;;;;;;;6250508;22;20028;-87
2021/01/18 06:03:39;;;;;;;26.55;8.35;;;;;;;;;;6274160;22;20290;-88
2021/01/18 06:06:05;;;;;;;29.42;10.07;;;;;;;;;;6275837;22;20324;-88
2021/01/18 06:08:31;;;;;;;29.77;11.23;;;;;;;;;;6249406;22;20398;-87
2021/01/18 06:11:02;;;;;;;38.95;12.40;;;;;;;;;;6250852;22;20034;-87
2021/01/18 06:13:29;;;;;;;30.58;11.85;;;;;;;;;;6250370;22;20047;-87
2021/01/18 06:16:06;;;;;;;36.35;13.77;;;;;;;;;;6251963;22;20177;-87
2021/01/18 06:18:33;;;;;;;38.65;13.90;;;;;;;;;;6276911;22;20028;-88
2021/01/18 06:21:00;;;;;;;41.95;14.38;;;;;;;;;;6252426;22;20047;-87
2021/01/18 06:23:26;;;;;;;34.53;14.38;;;;;;;;;;6252407;22;20039;-87
2021/01/18 06:25:54;;;;;;;49.53;16.10;;;;;;;;;;6255007;22;20023;-87
2021/01/18 06:28:24;;;;;;;42.92;16.20;;;;;;;;;;6255523;22;20023;-87
2021/01/18 06:31:04;;;;;;;51.42;16.60;;;;;;;;;;6269879;22;20026;-85
2021/01/18 06:33:47;;;;;;;45.53;15.70;;;;;;;;;;6266612;22;20031;-87
2021/01/18 06:36:20;;;;;;;41.60;15.23;;;;;;;;;;6254293;22;20028;-88
2021/01/18 06:39:11;;;;;;;46.08;15.75;;;;;;;;;;6254361;22;20028;-88
2021/01/18 06:41:38;;;;;;;40.08;14.80;;;;;;;;;;6290635;22;20096;-86
2021/01/18 06:44:07;;;;;;;42.00;15.43;;;;;;;;;;6267973;22;20050;-86
2021/01/18 06:46:35;;;;;;;35.75;14.48;;;;;;;;;;6284995;22;20230;-86
2021/01/18 06:49:02;;;;;;;40.63;14.93;;;;;;;;;;6253789;22;20069;-87
2021/01/18 06:51:29;;;;;;;37.50;16.23;;;;;;;;;;6279678;22;20306;-86
2021/01/18 06:53:57;;;;;;;48.65;17.27;;;;;;;;;;6250168;22;20087;-85
2021/01/18 06:56:27;;;;;;;50.08;18.50;;;;;;;;;;6273710;22;20047;-85
2021/01/18 06:59:09;;;;;;;39.55;17.60;;;;;;;;;;6244061;22;20054;-85
2021/01/18 07:01:40;;;;;;;40.75;18.10;;;;;;;;;;6273390;22;20250;-85
2021/01/18 07:04:09;;;;;;;47.25;19.10;;;;;;;;;;6277068;22;20044;-86
2021/01/18 07:06:41;;;;;;;41.88;19.50;;;;;;;;;;6277567;22;20053;-85
2021/01/18 07:09:25;;;;;;;37.70;18.30;;;;;;;;;;6252528;22;20456;-85
2021/01/18 07:12:01;;;;;;;39.22;17.08;;;;;;;;;;6253284;22;20235;-85
2021/01/18 07:14:32;;;;;;;27.90;13.63;;;;;;;;;;6278029;22;20103;-85
2021/01/18 07:17:03;;;;;;;37.05;15.07;;;;;;;;;;6253081;22;20027;-85
2021/01/18 07:19:37;;;;;;;36.88;14.00;;;;;;;;;;6265783;22;20216;-85
2021/01/18 07:22:35;;;;;;;37.25;13.80;;;;;;;;;;6294928;22;20035;-84
2021/01/18 07:25:23;;;;;;;35.97;13.95;;;;;;;;;;6279885;22;20135;-85
2021/01/18 07:27:51;;;;;;;37.67;14.00;;;;;;;;;;6278785;22;20027;-85
2021/01/18 07:30:20;;;;;;;34.92;13.80;;;;;;;;;;6252626;22;20075;-85
2021/01/18 07:32:49;;;;;;;28.80;13.48;;;;;;;;;;6250422;22;20047;-85
2021/01/18 07:35:16;;;;;;;34.53;13.15;;;;;;;;;;6248726;22;20414;-85
2021/01/18 07:37:42;;;;;;;33.58;13.13;;;;;;;;;;6277266;22;20066;-84
2021/01/18 07:40:14;;;;;;;29.55;13.02;;;;;;;;;;6274849;22;20101;-84
2021/01/18 07:42:41;;;;;;;23.67;10.80;;;;;;;;;;6242835;23;20047;-84
2021/01/18 07:45:12;;;;;;;26.10;11.25;;;;;;;;;;6244477;22;20317;-84
2021/01/18 07:48:01;;;;;;;29.83;12.00;;;;;;;;;;6242687;23;20028;-84
2021/01/18 07:50:27;;;;;;;30.52;10.88;;;;;;;;;;6243946;23;20028;-84
2021/01/18 07:53:01;;;;;;;39.95;11.93;;;;;;;;;;6246253;23;20035;-85
2021/01/18 07:55:40;;;;;;;41.08;11.20;;;;;;;;;;6245475;23;20163;-85
2021/01/18 07:58:33;;;;;;;36.72;11.80;;;;;;;;;;6243752;23;20249;-85
2021/01/18 08:01:08;;;;;;;44.85;11.35;;;;;;;;;;6242048;23;20434;-86
2021/01/18 08:03:35;;;;;;;28.58;10.98;;;;;;;;;;6258061;22;20028;-88
2021/01/18 08:06:04;;;;;;;37.45;12.57;;;;;;;;;;6260228;22;20012;-88
2021/01/18 08:08:33;;;;;;;31.45;12.05;;;;;;;;;;6264063;22;20016;-89
2021/01/18 08:11:03;;;;;;;28.63;11.15;;;;;;;;;;6263664;22;20032;-89
2021/01/18 08:13:53;;;;;;;30.95;12.13;;;;;;;;;;6255450;23;20312;-89
2021/01/18 08:16:26;;;;;;;28.58;13.30;;;;;;;;;;6248859;23;20054;-88
2021/01/18 08:18:58;;;;;;;32.42;12.70;;;;;;;;;;6249906;23;20396;-89
2021/01/18 08:21:51;;;;;;;30.85;12.50;;;;;;;;;;6247655;23;20024;-89
2021/01/18 08:24:27;;;;;;;30.55;13.38;;;;;;;;;;6246245;23;20181;-89
2021/01/18 08:27:14;;;;;;;30.08;12.20;;;;;;;;;;6253318;23;20210;-87
2021/01/18 08:29:59;;;;;;;33.50;12.95;;;;;;;;;;6249916;23;20032;-87
2021/01/18 08:32:39;;;;;;;31.15;11.93;;;;;;;;;;6248624;22;20055;-88
2021/01/18 08:35:19;;;;;;;36.58;13.00;;;;;;;;;;6250090;23;20035;-87
2021/01/18 08:38:06;;;;;;;27.77;13.35;;;;;;;;;;6255760;22;20152;-88
2021/01/18 08:40:39;;;;;;;32.70;14.25;;;;;;;;;;6253477;22;20028;-88
2021/01/18 08:43:06;;;;;;;36.53;15.43;;;;;;;;;;6249493;23;20050;-88
2021/01/18 08:45:36;;;;;;;33.72;15.60;;;;;;;;;;6249225;23;20080;-87
2021/01/18 08:48:06;;;;;;;33.80;15.80;;;;;;;;;;6248956;23;20111;-87
2021/01/18 08:50:46;;;;;;;35.10;16.63;;;;;;;;;;6247255;22;20025;-86
2021/01/18 08:53:26;;;;;;;30.63;14.63;;;;;;;;;;6248224;22;20298;-87
2021/01/18 08:56:14;;;;;;;42.13;16.63;;;;;;;;;;6251339;23;20128;-87
2021/01/18 08:58:49;;;;;;;31.92;15.38;;;;;;;;;;6247559;23;20114;-86
2021/01/18 09:01:21;;;;;;;38.87;15.37;;;;;;;;;;6250328;22;20023;-86
2021/01/18 09:04:08;;;;;;;40.75;15.90;;;;;;;;;;6250864;23;20369;-86
2021/01/18 09:06:35;;;;;;;39.50;14.43;;;;;;;;;;6251894;23;20094;-86
2021/01/18 09:09:10;;;;;;;31.55;14.32;;;;;;;;;;6254037;22;20055;-87
2021/01/18 09:11:37;;;;;;;30.38;15.15;;;;;;;;;;6253169;23;20036;-87
2021/01/18 09:14:04;;;;;;;34.10;14.73;;;;;;;;;;6254920;22;20028;-86
2021/01/18 09:16:32;;;;;;;34.03;14.30;;;;;;;;;;6250023;23;20024;-87
2021/01/18 09:19:11;;;;;;;35.75;14.85;;;;;;;;;;6251394;22;20548;-88
2021/01/18 09:21:42;;;;;;;32.67;14.80;;;;;;;;;;6252701;23;20036;-87
2021/01/18 09:24:10;;;;;;;31.08;14.40;;;;;;;;;;6253902;23;20039;-88
2021/01/18 09:26:59;;;;;;;29.50;14.43;;;;;;;;;;6258167;23;20075;-89
2021/01/18 09:29:28;;;;;;;32.70;15.20;;;;;;;;;;6258173;23;20311;-88
2021/01/18 09:31:54;;;;;;;38.55;15.52;;;;;;;;;;6254422;23;20308;-88
2021/01/18 09:34:33;;;;;;;38.63;18.63;;;;;;;;;;6257365;23;20024;-88
2021/01/18 09:37:06;;;;;;;32.55;14.68;;;;;;;;;;6256504;23;20106;-88
2021/01/18 09:39:40;;;;;;;35.90;15.55;;;;;;;;;;6261096;22;20024;-88
2021/01/18 09:42:17;;;;;;;32.55;15.02;;;;;;;;;;6272377;22;20023;-89
2021/01/18 09:44:44;;;;;;;44.33;17.02;;;;;;;;;;6258402;22;20352;-88
2021/01/18 09:47:17;;;;;;;47.72;17.65;;;;;;;;;;6283590;22;20471;-88
2021/01/18 09:49:51;;;;;;;36.60;15.90;;;;;;;;;;6259180;22;20082;-89
2021/01/18 09:52:19;;;;;;;33.10;16.55;;;;;;;;;;6260192;22;20019;-88
2021/01/18 09:54:49;;;;;;;45.53;18.55;;;;;;;;;;6284401;22;20254;-88
2021/01/18 09:57:17;;;;;;;45.40;21.90;;;;;;;;;;6281111;22;20028;-88
2021/01/18 09:59:50;;;;;;;46.85;19.52;;;;;;;;;;6257637;22;20210;-89
2021/01/18 10:02:17;;;;;;;36.55;19.90;;;;;;;;;;6255860;22;20028;-88
2021/01/18 10:04:50;;;;;;;40.95;20.75;;;;;;;;;;6282296;22;20023;-87
2021/01/18 10:07:18;;;;;;;51.63;21.13;;;;;;;;;;6255531;22;20077;-88
2021/01/18 10:09:54;;;;;;;42.53;19.63;;;;;;;;;;6285157;22;20034;-88
2021/01/18 10:12:24;;;;;;;37.60;20.20;;;;;;;;;;6285309;22;20011;-87
2021/01/18 10:14:51;;;;;;;37.28;19.05;;;;;;;;;;6295539;22;20087;-86
2021/01/18 10:17:37;;;;;;;44.30;19.10;;;;;;;;;;6269556;22;20012;-86
2021/01/18 10:20:11;;;;;;;38.28;18.20;;;;;;;;;;6268992;22;20022;-85
2021/01/18 10:22:46;;;;;;;34.80;18.85;;;;;;;;;;6296042;22;20075;-86
2021/01/18 10:25:17;;;;;;;32.45;18.55;;;;;;;;;;6261498;22;20032;-85
2021/01/18 10:27:50;;;;;;;47.33;19.50;;;;;;;;;;6269748;22;20031;-87
2021/01/18 10:30:21;;;;;;;49.25;19.83;;;;;;;;;;6292347;22;20080;-86
2021/01/18 10:33:14;;;;;;;40.53;17.27;;;;;;;;;;6256903;22;20043;-85
2021/01/18 10:35:41;;;;;;;39.63;18.63;;;;;;;;;;6253394;22;20034;-84
2021/01/18 10:38:18;;;;;;;44.45;19.02;;;;;;;;;;6275914;22;20055;-84
2021/01/18 10:41:01;;;;;;;40.38;16.15;;;;;;;;;;6251214;22;20035;-86
2021/01/18 10:43:45;;;;;;;62.25;18.33;;;;;;;;;;6225014;23;20024;-85
2021/01/18 10:46:14;;;;;;;93.20;22.70;;;;;;;;;;6222253;23;20365;-85
2021/01/18 10:48:41;;;;;;;54.45;20.38;;;;;;;;;;6249515;23;20030;-85
2021/01/18 10:51:10;;;;;;;40.30;17.33;;;;;;;;;;6220716;23;20038;-84
2021/01/18 10:53:36;;;;;;;32.03;17.55;;;;;;;;;;6220977;23;20341;-84
2021/01/18 10:56:46;;;;;;;46.55;19.23;;;;;;;;;;6231370;23;20042;-85
2021/01/18 10:59:12;;;;;;;41.50;18.77;;;;;;;;;;6256243;23;20028;-84
2021/01/18 11:01:39;;;;;;;43.65;20.58;;;;;;;;;;6222018;23;20028;-84
2021/01/18 11:04:06;;;;;;;46.85;19.55;;;;;;;;;;6250062;23;20056;-85
2021/01/18 11:06:35;;;;;;;37.28;18.77;;;;;;;;;;6246368;23;20272;-85
2021/01/18 11:09:04;;;;;;;41.17;19.55;;;;;;;;;;6251590;23;20055;-85
2021/01/18 11:11:37;;;;;;;39.88;20.90;;;;;;;;;;6223492;23;20150;-85
2021/01/18 11:14:04;;;;;;;37.88;20.13;;;;;;;;;;6225109;23;20035;-84
2021/01/18 11:16:31;;;;;;;37.85;18.75;;;;;;;;;;6223388;23;20095;-86
2021/01/18 11:19:10;;;;;;;45.10;21.23;;;;;;;;;;6222103;23;20074;-85
2021/01/18 11:21:38;;;;;;;43.22;19.95;;;;;;;;;;6249128;23;20103;-84
2021/01/18 11:24:04;;;;;;;37.72;21.10;;;;;;;;;;6229470;23;20031;-85
2021/01/18 11:26:38;;;;;;;38.08;20.38;;;;;;;;;;6223120;23;20032;-85
2021/01/18 11:29:04;;;;;;;36.92;21.33;;;;;;;;;;6248882;23;20327;-85
2021/01/18 11:31:33;;;;;;;46.47;21.38;;;;;;;;;;6221752;23;20024;-86
2021/01/18 11:34:00;;;;;;;43.85;21.42;;;;;;;;;;6220164;23;20050;-86
2021/01/18 11:36:27;;;;;;;45.55;19.30;;;;;;;;;;6245848;23;20306;-86
2021/01/18 11:38:53;;;;;;;43.05;19.88;;;;;;;;;;6226944;23;20039;-86
2021/01/18 11:41:21;;;;;;;40.63;19.60;;;;;;;;;;6225575;22;20272;-86
2021/01/18 11:43:48;;;;;;;46.05;20.23;;;;;;;;;;6252285;22;20118;-85
2021/01/18 11:46:16;;;;;;;36.28;20.30;;;;;;;;;;6279268;22;20020;-86
2021/01/18 11:48:43;;;;;;;39.63;18.73;;;;;;;;;;6278147;22;20046;-85
2021/01/18 11:51:17;;;;;;;38.13;20.15;;;;;;;;;;6279372;22;20287;-85
2021/01/18 11:53:46;;;;;;;37.63;19.17;;;;;;;;;;6254411;22;20024;-85
2021/01/18 11:56:12;;;;;;;36.72;17.35;;;;;;;;;;6275987;22;20110;-85
2021/01/18 11:58:41;;;;;;;35.47;18.13;;;;;;;;;;6250232;22;20024;-85
2021/01/18 12:01:11;;;;;;;30.15;17.67;;;;;;;;;;6252219;22;20028;-85
2021/01/18 12:03:40;;;;;;;35.38;17.52;;;;;;;;;;6278411;22;20024;-86
2021/01/18 12:06:08;;;;;;;35.17;18.00;;;;;;;;;;6256238;22;20069;-86
2021/01/18 12:08:35;;;;;;;40.00;17.55;;;;;;;;;;6254004;22;20200;-84
2021/01/18 12:11:10;;;;;;;38.20;18.60;;;;;;;;;;6253860;22;20435;-85
2021/01/18 12:13:38;;;;;;;41.30;18.05;;;;;;;;;;6255735;22;20219;-84
2021/01/18 12:16:05;;;;;;;39.53;16.85;;;;;;;;;;6254778;22;20029;-85
2021/01/18 12:18:32;;;;;;;42.40;18.10;;;;;;;;;;6254610;22;20023;-84
2021/01/18 12:20:59;;;;;;;33.45;17.20;;;;;;;;;;6255282;22;20031;-85
2021/01/18 12:23:28;;;;;;;36.15;18.02;;;;;;;;;;6257033;22;20050;-86
2021/01/18 12:25:54;;;;;;;34.20;15.85;;;;;;;;;;6282025;22;20034;-85
2021/01/18 12:28:32;;;;;;;37.58;16.75;;;;;;;;;;6258308;22;20024;-85
2021/01/18 12:31:10;;;;;;;36.25;15.32;;;;;;;;;;6257294;22;20313;-86
2021/01/18 12:33:39;;;;;;;31.05;16.35;;;;;;;;;;6260481;22;20050;-86
2021/01/18 12:36:05;;;;;;;32.65;16.35;;;;;;;;;;6258448;22;20024;-87
2021/01/18 12:38:39;;;;;;;33.50;15.40;;;;;;;;;;6280065;22;20031;-86
2021/01/18 12:41:10;;;;;;;;;;;;;;;;;;6285111;22;20055;-87
2021/01/18 12:43:46;;;;;;;39.58;15.90;;;;;;;;;;6263174;22;19915;-89
2021/01/18 12:46:29;;;;;;;32.55;14.45;;;;;;;;;;6265585;22;20020;-89
2021/01/18 12:48:57;;;;;;;34.80;15.25;;;;;;;;;;6260590;22;20119;-88
2021/01/18 12:51:23;;;;;;;25.13;14.25;;;;;;;;;;6259866;22;20038;-89
2021/01/18 12:53:50;;;;;;;36.60;16.20;;;;;;;;;;6291410;22;20011;-90
2021/01/18 12:56:29;;;;;;;32.15;14.38;;;;;;;;;;6260917;22;20062;-90
2021/01/18 12:58:56;;;;;;;41.13;15.63;;;;;;;;;;6287049;22;20217;-89
2021/01/18 13:01:29;;;;;;;26.42;13.63;;;;;;;;;;6262213;22;20071;-89
2021/01/18 13:04:05;;;;;;;25.63;11.85;;;;;;;;;;6260499;22;20027;-89
2021/01/18 13:06:39;;;;;;;23.13;12.13;;;;;;;;;;6285725;22;20028;-89
2021/01/18 13:09:16;;;;;;;34.40;12.90;;;;;;;;;;6267657;22;20028;-89
2021/01/18 13:11:46;;;;;;;21.35;11.40;;;;;;;;;;6292835;22;20023;-90
2021/01/18 13:14:14;;;;;;;25.15;11.85;;;;;;;;;;6263541;22;20035;-89
2021/01/18 13:16:43;;;;;;;22.48;11.48;;;;;;;;;;6267266;22;20315;-87
2021/01/18 13:19:10;;;;;;;28.65;11.02;;;;;;;;;;6297849;22;20032;-88
2021/01/18 13:21:39;;;;;;;26.60;12.35;;;;;;;;;;6270138;22;20016;-88
2021/01/18 13:24:12;;;;;;;21.63;10.73;;;;;;;;;;6284241;22;20206;-87
2021/01/18 13:26:38;;;;;;;25.08;9.98;;;;;;;;;;6257228;22;20015;-87
2021/01/18 13:29:08;;;;;;;20.50;10.00;;;;;;;;;;6281878;22;20028;-88
2021/01/18 13:31:40;;;;;;;24.50;11.23;;;;;;;;;;6282143;22;20023;-88
2021/01/18 13:34:06;;;;;;;15.98;9.60;;;;;;;;;;6256126;22;20035;-87
2021/01/18 13:36:33;;;;;;;23.10;9.57;;;;;;;;;;6203325;22;20083;-88
2021/01/18 13:39:00;;;;;;;21.30;10.57;;;;;;;;;;6193208;23;20658;-86
2021/01/18 13:41:26;;;;;;;23.13;9.55;;;;;;;;;;6221898;23;20431;-87
2021/01/18 13:43:53;;;;;;;22.50;10.55;;;;;;;;;;6194124;23;20134;-87
2021/01/18 13:46:23;;;;;;;19.60;11.02;;;;;;;;;;6196734;23;20088;-88
2021/01/18 13:48:51;;;;;;;18.45;10.10;;;;;;;;;;6195891;23;20032;-88
2021/01/18 13:51:21;;;;;;;19.75;11.60;;;;;;;;;;6221617;23;20126;-88
2021/01/18 13:53:48;;;;;;;26.35;12.10;;;;;;;;;;6195796;23;20020;-88
2021/01/18 13:58:51;;;;;;;20.52;12.05;;;;;;;;;;6219296;22;20015;-88
2021/01/18 14:01:33;;;;;;;28.20;13.30;;;;;;;;;;6237837;22;20045;-88
2021/01/18 14:04:00;;;;;;;25.55;12.60;;;;;;;;;;6236007;22;20005;-87
2021/01/18 14:06:33;;;;;;;25.38;12.90;;;;;;;;;;6232401;22;20051;-87
2021/01/18 14:09:04;;;;;;;21.23;12.75;;;;;;;;;;6239454;22;20161;-88
2021/01/18 14:15:17;;;;;;;24.77;13.10;;;;;;;;;;6240225;22;20007;-86
2021/01/18 14:17:43;;;;;;;24.25;14.23;;;;;;;;;;6232828;22;20028;-86
2021/01/18 14:20:10;;;;;;;24.70;13.30;;;;;;;;;;6224084;23;20024;-86
2021/01/18 14:22:38;;;;;;;27.58;15.75;;;;;;;;;;6224620;23;20318;-86
2021/01/18 14:25:05;;;;;;;25.25;16.08;;;;;;;;;;6225519;23;20362;-87
2021/01/18 14:27:48;;;;;;;26.92;16.55;;;;;;;;;;6224841;23;20092;-86
2021/01/18 14:30:14;;;;;;;26.98;16.33;;;;;;;;;;6220410;23;20024;-86
2021/01/18 14:32:40;;;;;;;27.35;16.52;;;;;;;;;;6220337;23;20024;-88
2021/01/18 14:35:12;;;;;;;30.10;16.80;;;;;;;;;;6223696;23;20354;-86
2021/01/18 14:37:45;;;;;;;28.08;15.68;;;;;;;;;;6230770;23;20028;-87
2021/01/18 14:40:31;;;;;;;32.20;17.65;;;;;;;;;;6223135;23;20057;-87
2021/01/18 14:42:58;;;;;;;28.83;15.73;;;;;;;;;;6220211;23;20032;-87
2021/01/18 14:45:25;;;;;;;26.05;16.33;;;;;;;;;;6221075;23;20219;-88
2021/01/18 14:47:54;;;;;;;30.27;15.93;;;;;;;;;;6224896;23;20049;-88
2021/01/18 14:50:27;;;;;;;29.60;15.63;;;;;;;;;;6222917;23;20052;-88
2021/01/18 14:53:00;;;;;;;29.90;15.73;;;;;;;;;;6228394;23;20048;-90
2021/01/18 14:55:52;;;;;;;;;;;;;;;;;;;;;
2021/01/18 15:40:37;;;;;;;;;;;;;;;;;;;;;
2021/01/18 15:43:30;;;;;;;23.48;12.15;;;;;;;;;;6040954;23;20085;-90
2021/01/18 15:46:59;;;;;;;26.38;13.13;;;;;;;;;;6109627;23;20247;-89
2021/01/18 15:50:22;;;;;;;27.63;14.18;;;;;;;;;;6058888;23;20054;-89
2021/01/18 15:53:08;;;;;;;25.50;12.02;;;;;;;;;;5949748;24;20047;-89
2021/01/18 16:15:40;;;;;;;26.38;12.70;;;;;;;;;;6269570;22;20004;-86
2021/01/18 16:18:05;;;;;;;31.00;13.85;;;;;;;;;;6260127;22;20028;-88
2021/01/18 16:20:41;;;;;;;24.75;13.10;;;;;;;;;;6254352;23;20032;-88
2021/01/18 16:23:46;;;;;;;30.75;13.65;;;;;;;;;;6229657;23;20032;-89
2021/01/18 16:26:17;;;;;;;21.98;13.43;;;;;;;;;;6229306;23;20134;-86
2021/01/18 16:28:43;;;;;;;29.45;15.82;;;;;;;;;;6240221;23;20016;-88
2021/01/18 16:31:20;;;;;;;25.83;14.52;;;;;;;;;;6230867;23;20038;-87
2021/01/18 16:33:47;;;;;;;27.38;15.63;;;;;;;;;;6224484;23;20261;-87
2021/01/18 16:36:38;;;;;;;29.95;16.95;;;;;;;;;;6225915;23;20434;-86
2021/01/18 16:39:18;;;;;;;35.70;16.80;;;;;;;;;;6225264;23;20020;-88
2021/01/18 16:41:47;;;;;;;31.15;16.23;;;;;;;;;;6252065;23;20185;-86
2021/01/18 16:44:15;;;;;;;33.25;17.27;;;;;;;;;;6253910;23;20616;-84
2021/01/18 16:46:43;;;;;;;29.70;16.55;;;;;;;;;;6228918;23;20055;-86
2021/01/18 16:49:10;;;;;;;27.23;16.77;;;;;;;;;;6224705;23;20079;-87
2021/01/18 16:51:41;;;;;;;29.80;16.13;;;;;;;;;;6255268;23;20024;-87
2021/01/18 16:57:59;;;;;;;26.50;16.17;;;;;;;;;;6257914;23;20028;-89
2021/01/18 17:01:04;;;;;;;;;;;;;;;;;;;;;
2021/01/18 17:11:17;;;;;;;25.67;16.23;;;;;;;;;;6096929;23;20014;-90
2021/01/18 17:59:04;;;;;;;22.93;13.87;;;;;;;;;;6221968;22;20031;-88
2021/01/18 18:01:31;;;;;;;24.13;13.48;;;;;;;;;;6222546;23;20039;-88
2021/01/18 18:04:35;;;;;;;24.83;13.65;;;;;;;;;;6251736;23;20024;-88
2021/01/18 18:07:30;;;;;;;23.27;13.13;;;;;;;;;;6232928;23;20020;-88
2021/01/18 18:10:24;;;;;;;26.92;14.40;;;;;;;;;;6207424;22;20051;-89
2021/01/18 18:13:05;;;;;;;23.38;13.27;;;;;;;;;;6221173;23;20414;-88
2021/01/18 18:15:42;;;;;;;26.20;13.63;;;;;;;;;;6223183;23;20032;-88
2021/01/18 18:18:09;;;;;;;25.25;12.15;;;;;;;;;;6227816;23;20055;-88
2021/01/18 18:20:50;;;;;;;27.20;12.52;;;;;;;;;;6222627;23;20024;-88
2021/01/18 18:23:32;;;;;;;25.50;12.77;;;;;;;;;;6218944;23;20060;-88
2021/01/18 18:26:16;;;;;;;27.67;12.75;;;;;;;;;;6220673;23;20266;-89
2021/01/18 18:28:58;;;;;;;22.60;13.00;;;;;;;;;;6222348;23;20048;-89
2021/01/18 18:31:49;;;;;;;21.25;12.10;;;;;;;;;;6223964;23;20088;-89
2021/01/18 20:12:16;;;;;;;22.58;7.80;;;;;;;;;;6265828;23;20031;-91
2021/01/18 20:15:07;;;;;;;19.60;8.38;;;;;;;;;;6247420;22;20047;-90
2021/01/18 20:20:26;;;;;;;19.90;8.35;;;;;;;;;;6236877;22;20075;-91
2021/01/18 20:23:15;;;;;;;17.55;8.93;;;;;;;;;;6213981;23;20162;-90
2021/01/18 20:26:17;;;;;;;21.38;8.73;;;;;;;;;;6211573;22;20051;-91
2021/01/18 20:29:18;;;;;;;19.58;9.02;;;;;;;;;;6208019;23;20024;-91
2021/01/18 20:32:39;;;;;;;18.83;9.13;;;;;;;;;;6207950;23;20063;-91
2021/01/18 20:35:42;;;;;;;20.98;8.68;;;;;;;;;;6219740;23;20039;-89
2021/01/18 20:38:38;;;;;;;18.90;8.60;;;;;;;;;;6208708;23;20057;-90
2021/01/18 20:41:33;;;;;;;17.58;8.45;;;;;;;;;;6208943;23;20047;-89
2021/01/18 20:44:34;;;;;;;22.33;8.82;;;;;;;;;;6230180;23;20028;-89
2021/01/18 20:47:19;;;;;;;18.48;8.88;;;;;;;;;;6205301;23;20031;-91
2021/01/18 20:50:15;;;;;;;16.15;7.72;;;;;;;;;;6208513;23;20016;-90
2021/01/18 20:52:56;;;;;;;;;;;;;;;;;;6215372;22;20016;-89
2021/01/18 20:55:40;;;;;;;23.15;8.20;;;;;;;;;;6238525;22;19939;-89
2021/01/18 20:58:10;;;;;;;17.33;8.23;;;;;;;;;;6210541;23;20028;-87
2021/01/18 21:00:37;;;;;;;16.45;7.88;;;;;;;;;;6204937;23;20024;-87
2021/01/18 21:03:20;;;;;;;23.00;8.68;;;;;;;;;;6208526;23;20008;-87
2021/01/18 21:05:48;;;;;;;22.40;8.63;;;;;;;;;;6212093;22;20012;-88
2021/01/18 21:08:30;;;;;;;16.77;8.18;;;;;;;;;;6217795;22;20012;-88
2021/01/18 21:11:17;;;;;;;17.50;8.90;;;;;;;;;;6211883;23;20035;-89
2021/01/18 21:13:58;;;;;;;13.60;8.60;;;;;;;;;;6206400;23;20026;-87
2021/01/18 21:16:40;;;;;;;18.80;9.10;;;;;;;;;;6208924;23;20095;-87
2021/01/18 21:19:21;;;;;;;16.20;8.57;;;;;;;;;;6230442;23;20174;-87
2021/01/18 21:21:47;;;;;;;16.58;9.15;;;;;;;;;;6203785;23;20040;-87